No particular awareness of the weather is required.    There are no Weather-warnings


Meteo18 Weather Cam more information Meteo18 Weather Cam


Thunder radar more information blitzortung!


Rain radar more information rain snow radar


Visit our other weather sites:

Template documentation
and downloads

And another site



Weather Underground History page Text

Daily Summary for September 3, 2017 Units:  English    Metric   Both
« Previous Day
Next Day »
Daily Weekly Monthly Yearly Custom
  High: Low: Average:
Temperature: TemperatureC °F 7.8 °F 15.7 °F
Dew Point: DewpointC °F 6.4 °F 8.9 °F
Humidity: Humidity % 38 % 67 %
Wind Speed: WindSpeedKMH mph 0.0 mph 1.5 mph
Wind Gust: WindSpeedGustKMH mph - -
Wind:- - SSW
Pressure: PressurehPa in 1013.8 in -
Precipitation: 0.0 in    
Historical Graphs
 
 
Tabular Data for September 3, 2017
Time Temperature Dew Point Pressure Wind Wind Speed Wind Gust Humidity Rainfall Rate (Hourly)
TemperatureC °F DewpointC °F PressurehPa in Calm     Humidity % HourlyPrecipMM in
00:02 12.6 °F 9.6 °F 1021.9 in Calm     82 % 0.0 in
00:07 12.4 °F 9.4 °F 1021.9 in Calm     82 % 0.0 in
00:12 12.6 °F 9.4 °F 1021.6 in Calm     81 % 0.0 in
00:17 12.7 °F 9.3 °F 1021.6 in Calm     80 % 0.0 in
00:22 12.6 °F 9.4 °F 1021.6 in Calm     81 % 0.0 in
00:27 12.4 °F 9.2 °F 1021.6 in Calm     81 % 0.0 in
00:32 12.2 °F 9.2 °F 1021.6 in Calm     82 % 0.0 in
00:42 11.7 °F 9.1 °F 1021.6 in Calm     84 % 0.0 in
00:47 11.6 °F 9.2 °F 1021.6 in Calm     85 % 0.0 in
00:52 11.5 °F 9.1 °F 1021.6 in Calm     85 % 0.0 in
01:02 11.3 °F 9.0 °F 1021.6 in Calm     86 % 0.0 in
01:07 11.3 °F 9.2 °F 1021.6 in Calm     87 % 0.0 in
01:12 11.4 °F 9.1 °F 1021.6 in Calm     86 % 0.0 in
01:17 11.6 °F 9.3 °F 1021.2 in Calm     86 % 0.0 in
01:22 11.5 °F 9.4 °F 1021.2 in Calm     87 % 0.0 in
01:27 11.5 °F 9.4 °F 1021.2 in North 1.6 mph   87 % 0.0 in
01:32 11.5 °F 9.4 °F 1021.2 in NNE 1.6 mph 3.2 mph 87 % 0.0 in
01:37 11.4 °F 9.3 °F 1021.2 in NNE 1.6 mph 3.2 mph 87 % 0.0 in
01:42 11.3 °F 9.4 °F 1021.2 in North 1.6 mph 3.2 mph 88 % 0.0 in
01:47 11.2 °F 9.3 °F 1021.2 in North 1.6 mph 4.8 mph 88 % 0.0 in
01:52 11.2 °F 9.3 °F 1021.2 in Calm   4.8 mph 88 % 0.0 in
01:57 11.2 °F 9.1 °F 1021.2 in Calm   3.2 mph 87 % 0.0 in
02:02 11.0 °F 8.9 °F 1020.9 in WNW 1.6 mph 3.2 mph 87 % 0.0 in
02:07 10.9 °F 9.0 °F 1020.9 in Calm   3.2 mph 88 % 0.0 in
02:12 10.7 °F 8.8 °F 1020.9 in Calm   3.2 mph 88 % 0.0 in
02:17 10.6 °F 8.9 °F 1020.9 in Calm   3.2 mph 89 % 0.0 in
02:22 10.4 °F 8.7 °F 1021.2 in Calm   1.6 mph 89 % 0.0 in
02:32 10.5 °F 8.9 °F 1020.9 in Calm     90 % 0.0 in
02:37 10.4 °F 8.7 °F 1020.9 in Calm     89 % 0.0 in
02:42 10.2 °F 8.5 °F 1020.5 in Calm     89 % 0.0 in
02:47 9.8 °F 8.2 °F 1020.5 in Calm     90 % 0.0 in
02:52 9.9 °F 8.5 °F 1020.5 in Calm     91 % 0.0 in
03:02 10.1 °F 8.9 °F 1020.5 in Calm     92 % 0.0 in
03:07 10.1 °F 8.7 °F 1020.5 in Calm     91 % 0.0 in
03:12 9.7 °F 8.3 °F 1020.5 in Calm     91 % 0.0 in
03:17 9.6 °F 8.2 °F 1020.5 in Calm     91 % 0.0 in
03:22 9.5 °F 8.3 °F 1020.5 in Calm     92 % 0.0 in
03:27 9.6 °F 8.4 °F 1020.5 in Calm     92 % 0.0 in
03:32 9.7 °F 8.5 °F 1020.5 in Calm     92 % 0.0 in
03:37 9.8 °F 8.6 °F 1020.2 in Calm     92 % 0.0 in
03:42 9.7 °F 8.5 °F 1020.2 in Calm     92 % 0.0 in
03:47 9.7 °F 8.5 °F 1020.2 in Calm     92 % 0.0 in
03:52 9.3 °F 7.9 °F 1020.2 in Calm     91 % 0.0 in
03:57 9.2 °F 8.0 °F 1020.2 in Calm     92 % 0.0 in
04:02 9.1 °F 7.9 °F 1020.2 in Calm     92 % 0.0 in
04:07 9.2 °F 8.1 °F 1019.9 in Calm     93 % 0.0 in
04:12 9.2 °F 8.1 °F 1019.9 in Calm     93 % 0.0 in
04:17 9.1 °F 7.9 °F 1019.9 in Calm     92 % 0.0 in
04:22 9.1 °F 8.0 °F 1019.9 in Calm     93 % 0.0 in
04:27 9.0 °F 7.9 °F 1019.9 in Calm     93 % 0.0 in
04:32 8.9 °F 7.8 °F 1019.9 in Calm     93 % 0.0 in
04:37 9.1 °F 8.0 °F 1019.9 in Calm     93 % 0.0 in
04:42 9.1 °F 8.0 °F 1019.9 in Calm     93 % 0.0 in
04:47 9.1 °F 8.0 °F 1019.9 in Calm     93 % 0.0 in
04:52 9.1 °F 8.0 °F 1019.9 in Calm     93 % 0.0 in
04:57 9.0 °F 7.9 °F 1019.9 in Calm     93 % 0.0 in
05:02 8.9 °F 7.8 °F 1019.9 in Calm     93 % 0.0 in
05:07 8.8 °F 7.7 °F 1019.9 in Calm     93 % 0.0 in
05:12 8.7 °F 7.6 °F 1019.9 in Calm     93 % 0.0 in
05:22 8.6 °F 7.5 °F 1019.9 in Calm     93 % 0.0 in
05:27 8.6 °F 7.5 °F 1019.9 in Calm     93 % 0.0 in
05:32 8.6 °F 7.7 °F 1019.9 in Calm     94 % 0.0 in
05:37 8.6 °F 7.7 °F 1019.5 in Calm     94 % 0.0 in
05:42 8.6 °F 7.7 °F 1019.5 in Calm     94 % 0.0 in
05:47 8.5 °F 7.6 °F 1019.5 in Calm     94 % 0.0 in
05:52 8.3 °F 7.2 °F 1019.5 in Calm     93 % 0.0 in
05:57 8.3 °F 7.4 °F 1019.5 in Calm     94 % 0.0 in
06:02 8.2 °F 7.3 °F 1019.5 in Calm     94 % 0.0 in
06:07 8.2 °F 7.3 °F 1019.5 in Calm     94 % 0.0 in
06:12 8.3 °F 7.4 °F 1019.5 in Calm     94 % 0.0 in
06:17 8.1 °F 7.2 °F 1019.2 in Calm     94 % 0.0 in
06:22 8.1 °F 7.2 °F 1019.2 in Calm     94 % 0.0 in
06:27 8.0 °F 7.1 °F 1019.2 in Calm     94 % 0.0 in
06:32 8.1 °F 7.3 °F 1019.2 in Calm     95 % 0.0 in
06:42 8.1 °F 7.3 °F 1019.2 in Calm     95 % 0.0 in
06:47 8.1 °F 7.3 °F 1019.2 in Calm     95 % 0.0 in
06:52 7.9 °F 7.0 °F 1019.2 in Calm     94 % 0.0 in
07:02 7.8 °F 7.0 °F 1019.2 in Calm     95 % 0.0 in
07:07 7.8 °F 7.0 °F 1019.2 in Calm     95 % 0.0 in
07:12 7.8 °F 7.0 °F 1019.2 in Calm     95 % 0.0 in
07:17 7.8 °F 7.0 °F 1019.2 in Calm     95 % 0.0 in
07:22 7.8 °F 7.0 °F 1019.2 in Calm     95 % 0.0 in
07:27 7.8 °F 7.0 °F 1019.2 in Calm     95 % 0.0 in
07:32 7.9 °F 7.1 °F 1019.2 in Calm     95 % 0.0 in
07:37 8.0 °F 7.2 °F 1019.2 in Calm     95 % 0.0 in
07:42 8.1 °F 7.3 °F 1019.2 in Calm     95 % 0.0 in
07:47 8.2 °F 7.4 °F 1019.2 in Calm     95 % 0.0 in
07:52 8.3 °F 7.5 °F 1019.2 in Calm     95 % 0.0 in
07:57 8.2 °F 7.4 °F 1019.2 in Calm     95 % 0.0 in
08:02 8.3 °F 7.5 °F 1019.2 in Calm     95 % 0.0 in
08:07 8.6 °F 7.8 °F 1019.2 in Calm     95 % 0.0 in
08:12 9.1 °F 8.5 °F 1019.2 in Calm     96 % 0.0 in
08:17 9.7 °F 9.1 °F 1019.2 in Calm     96 % 0.0 in
08:22 10.2 °F 9.6 °F 1019.2 in Calm     96 % 0.0 in
08:32 10.9 °F 10.1 °F 1018.8 in Calm     95 % 0.0 in
08:37 11.4 °F 10.6 °F 1018.8 in Calm     95 % 0.0 in
08:42 11.7 °F 10.6 °F 1018.8 in Calm     93 % 0.0 in
08:47 12.1 °F 10.8 °F 1018.8 in Calm     92 % 0.0 in
08:57 12.1 °F 10.3 °F 1018.8 in Calm   3.2 mph 89 % 0.0 in
09:02 11.9 °F 10.0 °F 1018.8 in Calm   3.2 mph 88 % 0.0 in
09:12 11.8 °F 9.9 °F 1018.8 in Calm   3.2 mph 88 % 0.0 in
09:17 11.9 °F 10.1 °F 1018.8 in Calm   3.2 mph 89 % 0.0 in
09:22 11.9 °F 10.0 °F 1018.8 in Calm   3.2 mph 88 % 0.0 in
09:27 12.0 °F 10.1 °F 1018.8 in Calm   3.2 mph 88 % 0.0 in
09:32 12.2 °F 10.3 °F 1018.8 in Calm   3.2 mph 88 % 0.0 in
09:42 13.0 °F 10.7 °F 1018.8 in Calm     86 % 0.0 in
09:47 13.4 °F 11.1 °F 1018.8 in Calm     86 % 0.0 in
09:57 14.0 °F 11.0 °F 1018.8 in Calm   3.2 mph 82 % 0.0 in
10:02 14.4 °F 11.4 °F 1018.8 in ESE 3.2 mph 3.2 mph 82 % 0.0 in
10:07 14.8 °F 11.6 °F 1018.8 in Calm   3.2 mph 81 % 0.0 in
10:12 15.1 °F 11.5 °F 1018.8 in Calm   3.2 mph 79 % 0.0 in
10:17 15.2 °F 11.4 °F 1018.8 in ESE 1.6 mph 3.2 mph 78 % 0.0 in
10:22 15.1 °F 11.5 °F 1018.8 in Calm   4.8 mph 79 % 0.0 in
10:27 15.2 °F 11.4 °F 1018.8 in Calm   4.8 mph 78 % 0.0 in
10:32 15.1 °F 11.3 °F 1018.5 in SE 1.6 mph 4.8 mph 78 % 0.0 in
10:37 15.1 °F 11.5 °F 1018.5 in SE 1.6 mph 4.8 mph 79 % 0.0 in
10:42 15.6 °F 11.8 °F 1018.5 in Calm   4.8 mph 78 % 0.0 in
10:47 15.8 °F 12.0 °F 1018.5 in Calm   4.8 mph 78 % 0.0 in
10:52 16.1 °F 11.9 °F 1018.5 in ESE 3.2 mph 3.2 mph 76 % 0.0 in
10:57 16.1 °F 11.9 °F 1018.5 in Calm   4.8 mph 76 % 0.0 in
11:02 16.3 °F 12.1 °F 1018.5 in ENE 1.6 mph 4.8 mph 76 % 0.0 in
11:07 16.8 °F 12.1 °F 1018.5 in WSW 1.6 mph 4.8 mph 74 % 0.0 in
11:12 17.2 °F 12.1 °F 1018.2 in East 3.2 mph 4.8 mph 72 % 0.0 in
11:17 17.1 °F 11.8 °F 1018.5 in ENE 1.6 mph 4.8 mph 71 % 0.0 in
11:22 17.1 °F 12.0 °F 1018.2 in East 4.8 mph 8.0 mph 72 % 0.0 in
11:27 17.7 °F 12.2 °F 1018.2 in SSW 3.2 mph 8.0 mph 70 % 0.0 in
11:32 18.0 °F 12.2 °F 1018.2 in ENE 1.6 mph 8.0 mph 69 % 0.0 in
11:37 18.3 °F 11.8 °F 1018.2 in WSW 1.6 mph 4.8 mph 66 % 0.0 in
11:42 18.6 °F 11.9 °F 1017.8 in SW 3.2 mph 4.8 mph 65 % 0.0 in
11:47 18.9 °F 12.2 °F 1017.8 in ESE 1.6 mph 4.8 mph 65 % 0.0 in
11:57 19.3 °F 12.1 °F 1017.8 in ENE 3.2 mph 8.0 mph 63 % 0.0 in
12:02 19.1 °F 11.9 °F 1017.8 in SSE 1.6 mph 8.0 mph 63 % 0.0 in
12:07 19.3 °F 10.8 °F 1017.8 in SW 1.6 mph 12.9 mph 58 % 0.0 in
12:12 19.6 °F 11.4 °F 1017.8 in SSE 3.2 mph 12.9 mph 59 % 0.0 in
12:17 19.9 °F 11.1 °F 1017.8 in SW 9.7 mph 12.9 mph 57 % 0.0 in
12:22 19.6 °F 10.3 °F 1017.8 in SSW 4.8 mph 14.5 mph 55 % 0.0 in
12:27 19.6 °F 10.6 °F 1017.8 in Calm   14.5 mph 56 % 0.0 in
12:32 19.7 °F 10.9 °F 1017.5 in Calm   14.5 mph 57 % 0.0 in
12:37 20.0 °F 11.2 °F 1017.5 in Calm   12.9 mph 57 % 0.0 in
12:42 20.6 °F 11.0 °F 1017.5 in ESE 1.6 mph 11.3 mph 54 % 0.0 in
12:47 20.6 °F 11.0 °F 1017.5 in SE 3.2 mph 11.3 mph 54 % 0.0 in
12:52 21.2 °F 11.0 °F 1017.2 in South 3.2 mph 11.3 mph 52 % 0.0 in
12:57 21.3 °F 9.8 °F 1017.5 in WSW 8.0 mph 12.9 mph 48 % 0.0 in
13:02 21.1 °F 10.0 °F 1017.2 in SSW 3.2 mph 12.9 mph 49 % 0.0 in
13:07 20.9 °F 9.2 °F 1017.2 in WSW 4.8 mph 12.9 mph 47 % 0.0 in
13:12 20.8 °F 9.7 °F 1017.2 in South 6.4 mph 12.9 mph 49 % 0.0 in
13:17 20.7 °F 9.0 °F 1017.2 in East 1.6 mph 12.9 mph 47 % 0.0 in
13:22 20.8 °F 9.4 °F 1017.2 in Calm   11.3 mph 48 % 0.0 in
13:27 21.2 °F 9.4 °F 1016.8 in East 4.8 mph 9.7 mph 47 % 0.0 in
13:32 21.1 °F 9.7 °F 1016.8 in SSW 4.8 mph 11.3 mph 48 % 0.0 in
13:37 21.2 °F 8.8 °F 1016.8 in WSW 1.6 mph 16.1 mph 45 % 0.0 in
13:42 21.6 °F 9.5 °F 1016.8 in West 1.6 mph 16.1 mph 46 % 0.0 in
13:47 22.2 °F 9.0 °F 1016.5 in ESE 3.2 mph 8.0 mph 43 % 0.0 in
13:52 21.7 °F 8.6 °F 1016.5 in South 9.7 mph 11.3 mph 43 % 0.0 in
13:57 21.8 °F 8.3 °F 1016.5 in East 3.2 mph 12.9 mph 42 % 0.0 in
14:02 21.4 °F 7.6 °F 1016.5 in Calm   12.9 mph 41 % 0.0 in
14:07 21.4 °F 8.6 °F 1016.5 in SSE 3.2 mph 12.9 mph 44 % 0.0 in
14:12 21.6 °F 8.5 °F 1016.5 in SSW 11.3 mph 11.3 mph 43 % 0.0 in
14:17 21.3 °F 7.5 °F 1016.5 in SW 8.0 mph 14.5 mph 41 % 0.0 in
14:22 21.1 °F 8.0 °F 1016.1 in East 1.6 mph 14.5 mph 43 % 0.0 in
14:27 21.2 °F 8.1 °F 1016.1 in SW 1.6 mph 14.5 mph 43 % 0.0 in
14:32 21.3 °F 8.2 °F 1016.1 in WNW 3.2 mph 14.5 mph 43 % 0.0 in
14:37 21.6 °F 8.1 °F 1016.1 in SSW 9.7 mph 9.7 mph 42 % 0.0 in
14:42 21.7 °F 7.9 °F 1016.1 in Calm   11.3 mph 41 % 0.0 in
14:47 21.9 °F 7.7 °F 1016.1 in Calm   11.3 mph 40 % 0.0 in
14:52 22.1 °F 8.6 °F 1015.8 in SW 3.2 mph 14.5 mph 42 % 0.0 in
14:57 21.9 °F 6.9 °F 1015.8 in SSW 3.2 mph 14.5 mph 38 % 0.0 in
15:02 21.5 °F 7.7 °F 1015.8 in SW 6.4 mph 16.1 mph 41 % 0.0 in
15:07 21.7 °F 7.5 °F 1015.8 in Calm   16.1 mph 40 % 0.0 in
15:17 21.6 °F 8.1 °F 1015.8 in SW 1.6 mph 12.9 mph 42 % 0.0 in
15:22 21.8 °F 8.3 °F 1015.8 in SW 8.0 mph 12.9 mph 42 % 0.0 in
15:27 21.7 °F 7.9 °F 1015.5 in WSW 14.5 mph 14.5 mph 41 % 0.0 in
15:32 21.4 °F 8.0 °F 1015.5 in SSW 3.2 mph 19.3 mph 42 % 0.0 in
15:37 21.5 °F 8.0 °F 1015.5 in Calm   19.3 mph 42 % 0.0 in
15:42 21.8 °F 8.0 °F 1015.5 in ENE 1.6 mph 19.3 mph 41 % 0.0 in
15:47 22.1 °F 7.9 °F 1015.5 in SSE 3.2 mph 9.7 mph 40 % 0.0 in
15:57 22.1 °F 7.9 °F 1015.1 in SSW 8.0 mph 11.3 mph 40 % 0.0 in
16:02 21.8 °F 7.6 °F 1015.1 in SW 6.4 mph 14.5 mph 40 % 0.0 in
16:07 21.8 °F 8.0 °F 1015.1 in WSW 3.2 mph 14.5 mph 41 % 0.0 in
16:12 21.8 °F 8.0 °F 1015.1 in WSW 6.4 mph 14.5 mph 41 % 0.0 in
16:17 22.1 °F 8.2 °F 1015.1 in West 6.4 mph 12.9 mph 41 % 0.0 in
16:22 22.1 °F 8.2 °F 1014.8 in Calm   12.9 mph 41 % 0.0 in
16:27 22.4 °F 8.1 °F 1014.8 in NNW 4.8 mph 12.9 mph 40 % 0.0 in
16:32 22.4 °F 8.1 °F 1014.8 in WSW 1.6 mph 12.9 mph 40 % 0.0 in
16:37 22.6 °F 8.7 °F 1014.8 in SW 8.0 mph 9.7 mph 41 % 0.0 in
16:42 22.6 °F 8.3 °F 1014.8 in SW 4.8 mph 9.7 mph 40 % 0.0 in
16:47 22.5 °F 7.9 °F 1014.8 in WSW 6.4 mph 11.3 mph 39 % 0.0 in
16:52 22.0 °F 8.1 °F 1014.8 in SSW 8.0 mph 11.3 mph 41 % 0.0 in
16:57 21.9 °F 7.7 °F 1014.4 in West 3.2 mph 11.3 mph 40 % 0.0 in
17:02 21.8 °F 7.6 °F 1014.4 in West 3.2 mph 12.9 mph 40 % 0.0 in
17:07 21.8 °F 7.6 °F 1014.4 in WSW 3.2 mph 14.5 mph 40 % 0.0 in
17:12 22.1 °F 8.2 °F 1014.4 in WNW 4.8 mph 14.5 mph 41 % 0.0 in
17:17 22.1 °F 7.9 °F 1014.4 in Calm   11.3 mph 40 % 0.0 in
17:22 22.4 °F 8.1 °F 1014.4 in Calm   9.7 mph 40 % 0.0 in
17:27 22.5 °F 7.9 °F 1014.4 in WSW 3.2 mph 8.0 mph 39 % 0.0 in
17:32 22.1 °F 7.9 °F 1014.4 in West 8.0 mph 14.5 mph 40 % 0.0 in
17:37 21.8 °F 7.6 °F 1014.4 in WSW 6.4 mph 17.7 mph 40 % 0.0 in
17:42 21.7 °F 7.5 °F 1014.4 in WSW 3.2 mph 17.7 mph 40 % 0.0 in
17:47 21.4 °F 7.2 °F 1014.4 in West 11.3 mph 14.5 mph 40 % 0.0 in
17:57 21.3 °F 6.8 °F 1014.4 in West 4.8 mph 16.1 mph 39 % 0.0 in
18:02 21.2 °F 6.7 °F 1014.1 in WSW 8.0 mph 16.1 mph 39 % 0.0 in
18:07 21.3 °F 6.8 °F 1014.1 in West 6.4 mph 14.5 mph 39 % 0.0 in
18:12 21.3 °F 6.8 °F 1014.1 in SW 4.8 mph 11.3 mph 39 % 0.0 in
18:17 21.3 °F 6.8 °F 1014.1 in SW 4.8 mph 8.0 mph 39 % 0.0 in
18:22 21.3 °F 6.8 °F 1014.1 in West 4.8 mph 12.9 mph 39 % 0.0 in
18:27 21.2 °F 6.7 °F 1014.1 in West 8.0 mph 12.9 mph 39 % 0.0 in
18:32 21.2 °F 6.7 °F 1014.1 in WSW 8.0 mph 12.9 mph 39 % 0.0 in
18:42 21.1 °F 7.0 °F 1014.1 in West 4.8 mph 12.9 mph 40 % 0.0 in
18:47 21.0 °F 6.9 °F 1014.1 in WSW 3.2 mph 12.9 mph 40 % 0.0 in
18:52 20.9 °F 6.8 °F 1014.1 in West 3.2 mph 11.3 mph 40 % 0.0 in
18:57 20.9 °F 6.4 °F 1014.1 in SSW 3.2 mph 9.7 mph 39 % 0.0 in
19:02 20.8 °F 6.7 °F 1014.1 in West 4.8 mph 9.7 mph 40 % 0.0 in
19:07 20.8 °F 7.1 °F 1014.1 in West 1.6 mph 8.0 mph 41 % 0.0 in
19:12 20.7 °F 7.3 °F 1014.1 in SW 1.6 mph 8.0 mph 42 % 0.0 in
19:17 20.7 °F 7.7 °F 1014.1 in West 3.2 mph 6.4 mph 43 % 0.0 in
19:22 20.6 °F 7.6 °F 1013.8 in WSW 1.6 mph 6.4 mph 43 % 0.0 in
19:27 20.6 °F 7.9 °F 1013.8 in WSW 1.6 mph 6.4 mph 44 % 0.0 in
19:32 20.5 °F 7.8 °F 1013.8 in WSW 1.6 mph 4.8 mph 44 % 0.0 in
19:37 20.4 °F 7.7 °F 1013.8 in Calm   4.8 mph 44 % 0.0 in
19:42 20.4 °F 8.4 °F 1013.8 in Calm   3.2 mph 46 % 0.0 in
19:47 20.4 °F 8.1 °F 1013.8 in Calm   3.2 mph 45 % 0.0 in
19:52 20.4 °F 8.1 °F 1013.8 in Calm   1.6 mph 45 % 0.0 in
19:57 20.3 °F 8.3 °F 1013.8 in Calm   1.6 mph 46 % 0.0 in
20:02 20.2 °F 8.5 °F 1013.8 in Calm   1.6 mph 47 % 0.0 in
20:07 20.1 °F 8.1 °F 1013.8 in Calm     46 % 0.0 in
20:12 20.1 °F 7.8 °F 1013.8 in Calm     45 % 0.0 in
20:17 20.1 °F 8.7 °F 1013.8 in Calm     48 % 0.0 in
20:22 19.8 °F 8.5 °F 1013.8 in Calm     48 % 0.0 in
20:27 19.8 °F 7.8 °F 1013.8 in Calm     46 % 0.0 in
20:32 19.8 °F 8.5 °F 1013.8 in Calm     48 % 0.0 in
20:37 19.6 °F 8.6 °F 1013.8 in Calm     49 % 0.0 in
20:42 19.3 °F 8.9 °F 1013.8 in Calm     51 % 0.0 in
20:47 19.2 °F 9.4 °F 1014.1 in Calm     53 % 0.0 in
20:52 18.9 °F 9.4 °F 1014.1 in Calm     54 % 0.0 in
20:57 18.8 °F 9.3 °F 1014.1 in Calm     54 % 0.0 in
21:02 18.6 °F 9.4 °F 1014.1 in Calm     55 % 0.0 in
21:07 18.5 °F 8.7 °F 1014.1 in Calm     53 % 0.0 in
21:12 18.5 °F 9.0 °F 1014.4 in Calm     54 % 0.0 in
21:17 18.3 °F 9.1 °F 1014.4 in Calm     55 % 0.0 in
21:22 18.2 °F 9.3 °F 1014.4 in Calm     56 % 0.0 in
21:27 18.0 °F 9.4 °F 1014.4 in Calm     57 % 0.0 in
21:32 18.0 °F 8.8 °F 1014.4 in Calm     55 % 0.0 in
21:37 18.1 °F 8.4 °F 1014.4 in Calm     53 % 0.0 in
21:42 18.3 °F 8.6 °F 1014.4 in Calm     53 % 0.0 in
21:47 18.3 °F 9.4 °F 1014.4 in Calm     56 % 0.0 in
21:52 18.2 °F 9.3 °F 1014.4 in Calm     56 % 0.0 in
22:02 18.1 °F 9.2 °F 1014.4 in Calm     56 % 0.0 in
22:07 18.1 °F 9.4 °F 1014.4 in Calm     57 % 0.0 in
22:12 18.1 °F 9.4 °F 1014.4 in Calm     57 % 0.0 in
22:17 18.1 °F 9.7 °F 1014.4 in ESE 1.6 mph   58 % 0.0 in
22:22 18.0 °F 9.9 °F 1014.4 in Calm   3.2 mph 59 % 0.0 in
22:27 17.9 °F 10.0 °F 1014.4 in Calm   3.2 mph 60 % 0.0 in
22:37 17.8 °F 10.2 °F 1014.4 in Calm   3.2 mph 61 % 0.0 in
22:42 17.8 °F 10.2 °F 1014.4 in SSW 1.6 mph 3.2 mph 61 % 0.0 in
22:47 17.8 °F 10.2 °F 1014.4 in SSW 1.6 mph 4.8 mph 61 % 0.0 in
22:52 17.8 °F 10.2 °F 1014.4 in South 1.6 mph 4.8 mph 61 % 0.0 in
22:57 17.7 °F 10.1 °F 1014.4 in SSE 3.2 mph 4.8 mph 61 % 0.0 in
23:02 17.7 °F 10.1 °F 1014.4 in Calm   3.2 mph 61 % 0.0 in
23:07 17.7 °F 10.1 °F 1014.4 in Calm   3.2 mph 61 % 0.0 in
23:12 17.6 °F 10.0 °F 1014.4 in South 1.6 mph 4.8 mph 61 % 0.0 in
23:17 17.6 °F 10.5 °F 1014.4 in Calm   6.4 mph 63 % 0.0 in
23:22 17.4 °F 10.5 °F 1014.4 in Calm   6.4 mph 64 % 0.0 in
23:27 17.3 °F 10.7 °F 1014.4 in SSW 1.6 mph 4.8 mph 65 % 0.0 in
23:32 17.1 °F 10.9 °F 1014.4 in Calm   4.8 mph 67 % 0.0 in
23:37 16.8 °F 11.1 °F 1014.4 in Calm   4.8 mph 69 % 0.0 in
23:42 16.6 °F 10.9 °F 1014.4 in Calm   4.8 mph 69 % 0.0 in
23:47 16.6 °F 11.3 °F 1014.4 in Calm   1.6 mph 71 % 0.0 in
23:52 16.5 °F 11.2 °F 1014.4 in Calm   1.6 mph 71 % 0.0 in
23:57 16.4 °F 11.5 °F 1014.4 in Calm   1.6 mph 73 % 0.0 in
Meteo18
Compliments of Weather Underground - 4 mb

Script developed by  Jim McMurry - jmcmurry@mwt.net Adapted for the template by  Wim van der Kuil - Leuven-Template.eu

You find our weather info also at:

European Weather Network

Weather Underground

Equipment we use:

Weather-station
Davis Vue

Weather-program
Meteobridge

Weather-server
Raspberry PI 2 B+

Provider
1 and 1

Davis Vue

Meteobridge

Raspberry PI 2 B+

1 and 1